Time;durP1;ratioP1;P1;durP2;ratioP2;P2;SDS_P1;SDS_P2;PMS_P1;PMS_P2;Temp;Humidity;BMP_temperature;BMP_pressure;BME280_temperature;BME280_humidity;BME280_pressure;Samples;Min_cycle;Max_cycle;Signal;HPM_P1;HPM_P2
2021/09/26 00:00:16;;;;;;;0.40;0.20;;;17.40;99.90;;;;;;5053073;28;20393;-72
2021/09/26 00:02:42;;;;;;;0.40;0.30;;;17.30;99.90;;;;;;5053034;28;20389;-72
2021/09/26 00:05:10;;;;;;;0.40;0.30;;;17.20;99.90;;;;;;5035771;28;20905;-71
2021/09/26 00:07:36;;;;;;;0.40;0.20;;;17.30;99.90;;;;;;5043168;28;20382;-72
2021/09/26 00:10:04;;;;;;;0.40;0.30;;;17.20;99.90;;;;;;5033496;28;20383;-71
2021/09/26 00:12:29;;;;;;;0.40;0.30;;;17.10;99.90;;;;;;5032751;28;20383;-72
2021/09/26 00:14:55;;;;;;;0.40;0.20;;;17.10;99.90;;;;;;5033295;28;20883;-72
2021/09/26 00:17:22;;;;;;;0.40;0.30;;;17.10;99.90;;;;;;5031594;28;21669;-72
2021/09/26 00:19:48;;;;;;;0.40;0.20;;;17.10;99.90;;;;;;5015524;28;20387;-72
2021/09/26 00:22:14;;;;;;;0.40;0.30;;;17.10;99.90;;;;;;5033211;28;20414;-72
2021/09/26 00:24:39;;;;;;;0.40;0.30;;;17.10;99.90;;;;;;5034280;28;20394;-72
2021/09/26 00:27:09;;;;;;;0.40;0.30;;;17.10;99.90;;;;;;5051439;28;20377;-71
2021/09/26 00:29:35;;;;;;;0.40;0.20;;;17.00;99.90;;;;;;5053596;28;20373;-72
2021/09/26 00:32:01;;;;;;;0.40;0.20;;;17.00;99.90;;;;;;5035711;28;20405;-72
2021/09/26 00:34:27;;;;;;;0.40;0.30;;;16.90;99.90;;;;;;5052715;28;20738;-72
2021/09/26 00:36:52;;;;;;;0.40;0.30;;;16.90;99.90;;;;;;5052407;28;20391;-72
2021/09/26 00:39:18;;;;;;;0.40;0.30;;;16.90;99.90;;;;;;5052980;28;20386;-73
2021/09/26 00:41:44;;;;;;;0.40;0.30;;;16.90;99.90;;;;;;5053357;28;20381;-72
2021/09/26 00:44:10;;;;;;;0.40;0.20;;;16.90;99.90;;;;;;5053279;28;20385;-72
2021/09/26 00:46:35;;;;;;;0.40;0.20;;;16.90;99.90;;;;;;5052486;28;20680;-72
2021/09/26 00:49:01;;;;;;;0.40;0.30;;;16.90;99.90;;;;;;5052965;28;20892;-72
2021/09/26 00:51:27;;;;;;;0.40;0.30;;;16.90;99.90;;;;;;5052742;28;20378;-72
2021/09/26 00:53:52;;;;;;;0.40;0.20;;;16.90;99.90;;;;;;5053061;28;20378;-72
2021/09/26 00:56:18;;;;;;;0.40;0.20;;;16.80;99.90;;;;;;5053021;28;20382;-72
2021/09/26 00:58:45;;;;;;;0.40;0.30;;;16.90;99.90;;;;;;5052742;28;20913;-72
2021/09/26 01:01:11;;;;;;;0.40;0.30;;;16.90;99.90;;;;;;5052899;28;20400;-72
2021/09/26 01:03:36;;;;;;;0.40;0.30;;;16.90;99.90;;;;;;5034583;28;20733;-72
2021/09/26 01:06:17;;;;;;;0.40;0.20;;;16.90;99.90;;;;;;5052905;28;20814;-72
2021/09/26 01:09:03;;;;;;;0.40;0.20;;;16.80;99.90;;;;;;5052233;28;20381;-72
2021/09/26 01:11:53;;;;;;;0.40;0.28;;;16.80;99.90;;;;;;5052238;28;20734;-72
2021/09/26 01:14:33;;;;;;;0.40;0.30;;;16.80;99.90;;;;;;5034783;28;20496;-72
2021/09/26 01:17:12;;;;;;;0.40;0.22;;;16.70;99.90;;;;;;5052648;28;20390;-72
2021/09/26 01:20:07;;;;;;;0.40;0.20;;;16.70;99.90;;;;;;5052123;28;20393;-72
2021/09/26 01:23:03;;;;;;;0.40;0.20;;;16.70;99.90;;;;;;5009333;28;20420;-72
2021/09/26 01:25:56;;;;;;;0.40;0.30;;;16.80;99.90;;;;;;5052002;28;20464;-72
2021/09/26 01:28:59;;;;;;;0.40;0.20;;;16.70;99.90;;;;;;5034100;28;20402;-72
2021/09/26 01:31:31;;;;;;;0.60;0.60;;;16.70;99.90;;;;;;5051718;28;20567;-72
2021/09/26 01:34:10;;;;;;;0.40;0.40;;;16.70;99.90;;;;;;5052161;28;20378;-71
2021/09/26 01:36:51;;;;;;;0.40;0.20;;;16.70;99.90;;;;;;5051953;28;20390;-72
2021/09/26 01:39:20;;;;;;;0.40;0.20;;;16.60;99.90;;;;;;5052264;28;20382;-72
2021/09/26 01:42:02;;;;;;;0.40;0.30;;;16.60;99.90;;;;;;5051574;28;20384;-71
2021/09/26 01:44:39;;;;;;;0.40;0.30;;;16.60;99.90;;;;;;5051857;28;20401;-72
2021/09/26 01:47:06;;;;;;;0.40;0.30;;;16.60;99.90;;;;;;5051725;28;20382;-71
2021/09/26 01:49:40;;;;;;;0.40;0.30;;;16.60;99.90;;;;;;5051098;28;20421;-72
2021/09/26 01:52:14;;;;;;;0.40;0.20;;;16.50;99.90;;;;;;5051618;28;20474;-71
2021/09/26 01:54:40;;;;;;;0.40;0.30;;;16.50;99.90;;;;;;5050681;28;20405;-71
2021/09/26 01:57:07;;;;;;;0.40;0.20;;;16.50;99.90;;;;;;5051530;28;20555;-72
2021/09/26 01:59:34;;;;;;;0.40;0.20;;;16.50;99.90;;;;;;5050696;28;20715;-71
2021/09/26 02:02:00;;;;;;;0.40;0.20;;;16.50;99.90;;;;;;5051211;28;20793;-72
2021/09/26 02:04:28;;;;;;;0.40;0.20;;;16.50;99.90;;;;;;5032487;28;20727;-73
2021/09/26 02:06:54;;;;;;;0.40;0.22;;;16.50;99.90;;;;;;5051027;28;20385;-72
2021/09/26 02:09:21;;;;;;;0.40;0.20;;;16.60;99.90;;;;;;5051551;28;20384;-72
2021/09/26 02:11:47;;;;;;;0.40;0.30;;;16.60;99.90;;;;;;5050730;28;20381;-72
2021/09/26 02:14:14;;;;;;;0.40;0.20;;;16.60;99.90;;;;;;5050830;28;20963;-72
2021/09/26 02:16:40;;;;;;;0.40;0.25;;;16.60;99.90;;;;;;5050478;28;20436;-72
2021/09/26 02:19:07;;;;;;;0.60;0.60;;;16.40;99.90;;;;;;5050542;28;20381;-72
2021/09/26 02:21:33;;;;;;;0.40;0.20;;;16.40;99.90;;;;;;5050174;28;20385;-72
2021/09/26 02:24:01;;;;;;;0.40;0.20;;;16.30;99.90;;;;;;5051042;28;20406;-73
2021/09/26 02:26:27;;;;;;;0.40;0.20;;;16.30;99.90;;;;;;5032633;28;20389;-73
2021/09/26 02:28:53;;;;;;;0.40;0.20;;;16.30;99.90;;;;;;5050425;28;20858;-73
2021/09/26 02:31:19;;;;;;;0.40;0.25;;;16.30;99.90;;;;;;5050544;28;20390;-73
2021/09/26 02:33:45;;;;;;;0.40;0.30;;;16.30;99.90;;;;;;5049469;28;21230;-72
2021/09/26 02:36:12;;;;;;;0.40;0.30;;;16.30;99.90;;;;;;5050994;28;20464;-72
2021/09/26 02:38:39;;;;;;;0.40;0.30;;;16.30;99.90;;;;;;5049435;28;20932;-73
2021/09/26 02:41:11;;;;;;;0.40;0.30;;;16.20;99.90;;;;;;5050428;28;20404;-73
2021/09/26 02:43:44;;;;;;;0.40;0.30;;;16.20;99.90;;;;;;5049905;28;20382;-72
2021/09/26 02:46:16;;;;;;;0.40;0.30;;;16.20;99.90;;;;;;5050685;28;20444;-72
2021/09/26 02:48:42;;;;;;;0.40;0.20;;;16.10;99.90;;;;;;5049962;28;20390;-72
2021/09/26 02:51:10;;;;;;;0.40;0.20;;;16.10;99.90;;;;;;5032838;28;20719;-72
2021/09/26 02:53:36;;;;;;;0.40;0.20;;;16.10;99.90;;;;;;5049997;28;20392;-72
2021/09/26 02:56:02;;;;;;;0.40;0.30;;;16.10;99.90;;;;;;5032728;28;20754;-72
2021/09/26 02:58:28;;;;;;;0.40;0.30;;;16.10;99.90;;;;;;5049737;28;20385;-73
2021/09/26 03:00:54;;;;;;;0.40;0.28;;;16.00;99.90;;;;;;5049516;28;20718;-72
2021/09/26 03:03:24;;;;;;;0.40;0.40;;;16.00;99.90;;;;;;5050115;28;20377;-72
2021/09/26 03:05:50;;;;;;;0.40;0.20;;;15.90;99.90;;;;;;5049611;28;20373;-72
2021/09/26 03:08:17;;;;;;;0.40;0.20;;;15.90;99.90;;;;;;5017463;28;20391;-72
2021/09/26 03:10:45;;;;;;;0.40;0.20;;;15.90;99.90;;;;;;5029964;28;20394;-72
2021/09/26 03:13:10;;;;;;;0.40;0.30;;;15.90;99.90;;;;;;5030365;28;20456;-72
2021/09/26 03:15:36;;;;;;;0.40;0.20;;;16.00;99.90;;;;;;5029640;28;20931;-72
2021/09/26 03:18:03;;;;;;;0.40;0.30;;;16.00;99.90;;;;;;5030346;28;20747;-72
2021/09/26 03:20:28;;;;;;;0.40;0.20;;;16.00;99.90;;;;;;5030001;28;20855;-73
2021/09/26 03:22:55;;;;;;;0.40;0.20;;;16.00;99.90;;;;;;5029461;28;20379;-72
2021/09/26 03:25:21;;;;;;;0.40;0.20;;;16.10;99.90;;;;;;5030346;28;20484;-72
2021/09/26 03:27:47;;;;;;;0.40;0.20;;;16.00;99.90;;;;;;5029162;28;20395;-72
2021/09/26 03:30:14;;;;;;;0.40;0.30;;;16.00;99.90;;;;;;5030356;28;20841;-72
2021/09/26 03:32:39;;;;;;;0.40;0.30;;;16.10;99.90;;;;;;5028687;28;20395;-72
2021/09/26 03:35:07;;;;;;;0.40;0.30;;;16.10;99.90;;;;;;5030197;28;20461;-72
2021/09/26 03:37:33;;;;;;;0.40;0.20;;;16.10;99.90;;;;;;5011645;28;20844;-72
2021/09/26 03:39:59;;;;;;;0.40;0.20;;;16.10;99.90;;;;;;5030231;28;20380;-72
2021/09/26 03:42:25;;;;;;;0.40;0.20;;;16.10;99.90;;;;;;5029789;28;20398;-72
2021/09/26 03:44:51;;;;;;;0.40;0.30;;;16.10;99.90;;;;;;5028974;28;20411;-72
2021/09/26 03:47:16;;;;;;;0.40;0.30;;;16.00;99.90;;;;;;5029531;28;20820;-72
2021/09/26 03:49:42;;;;;;;0.40;0.30;;;16.00;99.90;;;;;;5029419;28;20432;-72
2021/09/26 03:52:08;;;;;;;0.40;0.20;;;16.00;99.90;;;;;;5029935;28;20383;-72
2021/09/26 03:54:33;;;;;;;0.40;0.30;;;15.90;99.90;;;;;;5011674;28;20486;-74
2021/09/26 03:56:59;;;;;;;0.40;0.20;;;16.00;99.90;;;;;;5029992;28;20437;-73
2021/09/26 03:59:25;;;;;;;0.40;0.20;;;16.10;99.90;;;;;;5029592;28;20486;-72
2021/09/26 04:01:51;;;;;;;0.40;0.20;;;16.10;99.90;;;;;;5029616;28;20451;-73
2021/09/26 04:04:17;;;;;;;0.40;0.30;;;16.00;99.90;;;;;;5030372;28;20804;-73
2021/09/26 04:06:44;;;;;;;0.40;0.20;;;16.00;99.90;;;;;;5031783;28;20391;-73
2021/09/26 04:09:11;;;;;;;0.40;0.20;;;16.10;99.90;;;;;;5050169;28;20385;-72
2021/09/26 04:11:36;;;;;;;0.40;0.30;;;16.00;99.90;;;;;;5052205;28;20385;-73
2021/09/26 04:14:03;;;;;;;0.40;0.20;;;16.00;99.90;;;;;;5053746;28;20850;-73
2021/09/26 04:16:29;;;;;;;0.40;0.20;;;15.90;99.90;;;;;;5053442;28;20394;-72
2021/09/26 04:18:55;;;;;;;0.40;0.20;;;15.90;99.90;;;;;;5052583;28;20397;-72
2021/09/26 04:21:20;;;;;;;0.40;0.20;;;15.90;99.90;;;;;;5053975;28;20468;-72
2021/09/26 04:23:47;;;;;;;0.40;0.20;;;15.90;99.90;;;;;;5052933;28;20408;-72
2021/09/26 04:26:13;;;;;;;0.40;0.30;;;15.90;99.90;;;;;;5053467;28;20396;-72
2021/09/26 04:28:39;;;;;;;0.40;0.30;;;15.90;99.90;;;;;;5052262;28;20393;-73
2021/09/26 04:31:05;;;;;;;0.40;0.20;;;15.90;99.90;;;;;;5035778;28;20733;-73
2021/09/26 04:33:32;;;;;;;0.40;0.20;;;15.90;99.90;;;;;;5053545;28;20465;-72
2021/09/26 04:35:57;;;;;;;0.40;0.20;;;16.00;99.90;;;;;;5052850;28;20447;-72
2021/09/26 04:38:23;;;;;;;0.40;0.30;;;16.10;99.90;;;;;;5053501;28;20381;-72
2021/09/26 04:40:49;;;;;;;0.40;0.20;;;16.10;99.90;;;;;;5034806;28;20389;-73
2021/09/26 04:43:14;;;;;;;0.40;0.30;;;16.10;99.90;;;;;;5053700;28;20399;-72
2021/09/26 04:45:40;;;;;;;0.40;0.20;;;16.10;99.90;;;;;;5052089;28;20496;-73
2021/09/26 04:48:06;;;;;;;0.40;0.20;;;16.10;99.90;;;;;;5035021;28;20389;-73
2021/09/26 04:50:32;;;;;;;0.40;0.20;;;16.10;99.90;;;;;;5053353;28;20404;-72
2021/09/26 04:52:58;;;;;;;0.40;0.20;;;16.00;99.90;;;;;;5052516;28;20868;-72
2021/09/26 04:55:25;;;;;;;0.40;0.20;;;16.00;99.90;;;;;;5053102;28;20416;-73
2021/09/26 04:57:56;;;;;;;2.00;0.90;;;16.00;99.90;;;;;;5034411;28;20409;-73
2021/09/26 05:00:22;;;;;;;0.40;0.30;;;16.20;99.90;;;;;;5035339;28;20381;-72
2021/09/26 05:02:48;;;;;;;0.40;0.20;;;16.10;99.90;;;;;;5052224;28;20419;-73
2021/09/26 05:05:14;;;;;;;0.40;0.20;;;16.10;99.90;;;;;;5052969;28;20385;-73
2021/09/26 05:07:40;;;;;;;0.40;0.30;;;16.10;99.90;;;;;;5042123;28;20383;-73
2021/09/26 05:10:06;;;;;;;0.40;0.30;;;16.10;99.90;;;;;;5033406;28;20387;-72
2021/09/26 05:12:32;;;;;;;0.40;0.20;;;16.10;99.90;;;;;;5033447;28;20457;-72
2021/09/26 05:15:02;;;;;;;0.40;0.30;;;16.10;99.90;;;;;;5032782;28;20477;-72
2021/09/26 05:17:28;;;;;;;0.40;0.30;;;16.10;99.90;;;;;;5015467;28;20409;-73
2021/09/26 05:19:54;;;;;;;0.40;0.20;;;16.20;99.90;;;;;;5032592;28;20385;-73
2021/09/26 05:22:20;;;;;;;0.40;0.20;;;16.20;99.90;;;;;;5032337;28;20735;-72
2021/09/26 05:24:45;;;;;;;0.40;0.30;;;16.20;99.90;;;;;;5032231;28;20402;-72
2021/09/26 05:27:11;;;;;;;0.40;0.20;;;16.20;99.90;;;;;;5033040;28;20466;-73
2021/09/26 05:29:38;;;;;;;0.40;0.30;;;16.20;99.90;;;;;;5032445;28;20917;-74
2021/09/26 05:32:04;;;;;;;0.40;0.20;;;16.20;99.90;;;;;;5032707;28;20415;-73
2021/09/26 05:34:29;;;;;;;0.40;0.20;;;16.20;99.90;;;;;;5032621;28;20419;-73
2021/09/26 05:36:56;;;;;;;0.90;0.70;;;16.30;99.90;;;;;;5031534;28;21311;-73
2021/09/26 05:39:24;;;;;;;0.40;0.20;;;16.30;99.90;;;;;;5032650;28;20438;-72
2021/09/26 05:41:51;;;;;;;0.40;0.30;;;16.40;99.90;;;;;;5031586;28;20411;-73
2021/09/26 05:44:17;;;;;;;0.40;0.20;;;16.40;99.90;;;;;;5032086;28;20478;-72
2021/09/26 05:46:42;;;;;;;0.40;0.20;;;16.40;99.90;;;;;;5031146;28;20648;-73
2021/09/26 05:49:08;;;;;;;0.40;0.30;;;16.40;99.90;;;;;;5032377;28;20390;-72
2021/09/26 05:51:33;;;;;;;0.40;0.20;;;16.60;99.90;;;;;;5032223;28;20384;-72
2021/09/26 05:53:59;;;;;;;0.40;0.20;;;16.80;99.90;;;;;;5031017;28;20383;-72
2021/09/26 05:56:25;;;;;;;0.40;0.30;;;16.80;99.90;;;;;;5031836;28;20383;-72
2021/09/26 05:58:50;;;;;;;0.40;0.30;;;16.80;99.90;;;;;;5030969;28;20444;-73
2021/09/26 06:01:16;;;;;;;0.40;0.20;;;16.90;99.90;;;;;;5032040;28;20387;-72
2021/09/26 06:03:41;;;;;;;0.40;0.30;;;16.80;99.90;;;;;;5030867;28;20486;-73
2021/09/26 06:06:08;;;;;;;0.40;0.20;;;16.90;99.90;;;;;;5031933;28;20401;-72
2021/09/26 06:08:34;;;;;;;0.40;0.20;;;16.90;99.90;;;;;;5049057;28;20393;-72
2021/09/26 06:11:00;;;;;;;0.40;0.30;;;17.00;99.90;;;;;;5050951;28;20893;-72
2021/09/26 06:13:25;;;;;;;0.40;0.20;;;17.00;99.90;;;;;;5051442;28;20413;-71
2021/09/26 06:15:51;;;;;;;0.40;0.30;;;16.80;99.90;;;;;;5050436;28;20436;-72
2021/09/26 06:18:18;;;;;;;0.40;0.30;;;16.80;99.90;;;;;;5045143;28;20402;-72
2021/09/26 06:20:47;;;;;;;0.40;0.30;;;16.70;99.90;;;;;;5030045;28;20411;-71
2021/09/26 06:23:13;;;;;;;0.40;0.30;;;16.70;99.90;;;;;;5031193;28;20398;-70
2021/09/26 06:25:39;;;;;;;0.40;0.20;;;16.70;99.90;;;;;;5030984;28;20395;-71
2021/09/26 06:28:05;;;;;;;0.40;0.20;;;16.50;99.90;;;;;;5031121;28;20744;-71
2021/09/26 06:30:32;;;;;;;0.40;0.20;;;16.50;99.90;;;;;;5031434;28;20720;-72
2021/09/26 06:32:57;;;;;;;0.40;0.30;;;16.50;99.90;;;;;;5030352;28;20804;-71
2021/09/26 06:35:23;;;;;;;0.40;0.20;;;16.50;99.90;;;;;;5030237;28;20457;-72
2021/09/26 06:37:50;;;;;;;0.40;0.30;;;16.50;99.90;;;;;;5012680;28;20406;-72
2021/09/26 06:40:16;;;;;;;0.40;0.30;;;16.50;99.90;;;;;;5031302;28;20395;-72
2021/09/26 06:42:41;;;;;;;0.40;0.30;;;16.50;99.90;;;;;;5030706;28;20855;-74
2021/09/26 06:45:08;;;;;;;0.40;0.30;;;16.50;99.90;;;;;;5030590;28;20414;-73
2021/09/26 06:47:34;;;;;;;0.40;0.20;;;16.50;99.90;;;;;;5013438;28;20862;-73
2021/09/26 06:50:00;;;;;;;0.40;0.20;;;16.60;99.90;;;;;;5029987;28;20499;-71
2021/09/26 06:52:25;;;;;;;0.40;0.20;;;16.60;99.90;;;;;;5034465;28;20748;-71
2021/09/26 06:54:51;;;;;;;0.40;0.20;;;16.60;99.90;;;;;;5046805;28;20401;-72
2021/09/26 06:57:17;;;;;;;0.40;0.30;;;16.60;99.90;;;;;;5050996;28;20382;-71
2021/09/26 06:59:42;;;;;;;0.40;0.20;;;16.60;99.90;;;;;;5050517;28;20385;-73
2021/09/26 07:02:08;;;;;;;0.40;0.30;;;16.60;99.90;;;;;;5033289;28;20387;-71
2021/09/26 07:04:35;;;;;;;0.40;0.30;;;16.70;99.90;;;;;;5030720;28;20822;-71
2021/09/26 07:07:00;;;;;;;0.40;0.30;;;16.60;99.90;;;;;;5034383;28;20450;-71
2021/09/26 07:09:26;;;;;;;0.40;0.20;;;16.70;99.90;;;;;;5050521;28;20719;-71
2021/09/26 07:11:53;;;;;;;0.40;0.20;;;16.70;99.90;;;;;;5049666;28;20377;-71
2021/09/26 07:14:19;;;;;;;0.40;0.20;;;16.70;99.90;;;;;;5050568;28;20424;-71
2021/09/26 07:16:45;;;;;;;0.40;0.20;;;16.70;99.90;;;;;;5050137;28;20857;-72
2021/09/26 07:19:12;;;;;;;0.40;0.30;;;16.60;99.90;;;;;;5050280;28;20887;-72
2021/09/26 07:21:38;;;;;;;0.40;0.20;;;16.60;99.90;;;;;;5049708;28;20891;-71
2021/09/26 07:24:05;;;;;;;0.40;0.30;;;16.50;99.90;;;;;;5047508;28;20395;-71
2021/09/26 07:26:31;;;;;;;0.40;0.20;;;16.50;99.90;;;;;;5039362;28;20439;-72
2021/09/26 07:28:57;;;;;;;0.40;0.30;;;16.50;99.90;;;;;;5028396;28;20402;-71
2021/09/26 07:31:22;;;;;;;0.40;0.30;;;16.50;99.90;;;;;;5043632;28;20386;-71
2021/09/26 07:33:50;;;;;;;0.60;0.50;;;16.50;99.90;;;;;;5042572;28;20394;-72
2021/09/26 07:36:16;;;;;;;0.40;0.20;;;16.50;99.90;;;;;;5030279;28;20401;-71
2021/09/26 07:38:42;;;;;;;0.40;0.30;;;16.50;99.90;;;;;;5050091;28;20431;-72
2021/09/26 07:41:08;;;;;;;0.40;0.20;;;16.60;99.90;;;;;;5049637;28;20381;-71
2021/09/26 07:43:33;;;;;;;0.40;0.20;;;16.60;99.90;;;;;;5050364;28;20385;-71
2021/09/26 07:45:59;;;;;;;0.40;0.30;;;16.70;99.90;;;;;;5033186;28;20424;-71
2021/09/26 07:48:25;;;;;;;0.40;0.30;;;16.70;99.90;;;;;;5051009;28;20380;-71
2021/09/26 07:50:51;;;;;;;0.40;0.30;;;16.70;99.90;;;;;;5059993;28;20467;-72
2021/09/26 07:53:17;;;;;;;0.40;0.30;;;16.80;99.90;;;;;;5063092;28;20873;-71
2021/09/26 07:55:43;;;;;;;0.40;0.30;;;16.80;99.90;;;;;;5073981;28;20886;-72
2021/09/26 07:58:09;;;;;;;0.40;0.20;;;16.80;99.90;;;;;;5067810;28;20395;-72
2021/09/26 08:00:35;;;;;;;0.40;0.20;;;16.90;99.90;;;;;;5049902;28;20385;-71
2021/09/26 08:03:00;;;;;;;0.40;0.20;;;17.00;99.90;;;;;;5051083;28;20381;-72
2021/09/26 08:05:26;;;;;;;0.40;0.20;;;17.10;99.90;;;;;;5053295;28;20389;-72
2021/09/26 08:07:52;;;;;;;0.40;0.20;;;17.00;99.90;;;;;;5049378;28;20390;-72
2021/09/26 08:10:17;;;;;;;0.40;0.20;;;17.10;99.90;;;;;;5052361;28;20381;-72
2021/09/26 08:12:43;;;;;;;0.40;0.30;;;17.20;99.90;;;;;;5049360;28;20393;-72
2021/09/26 08:15:09;;;;;;;0.40;0.20;;;17.30;99.90;;;;;;5050543;28;20496;-71
2021/09/26 08:17:35;;;;;;;0.40;0.20;;;17.40;99.90;;;;;;5052343;28;20421;-72
2021/09/26 08:20:01;;;;;;;0.40;0.20;;;17.60;99.90;;;;;;5050883;28;20444;-71
2021/09/26 08:22:27;;;;;;;0.40;0.30;;;17.70;99.90;;;;;;5043175;28;20881;-71
2021/09/26 08:24:53;;;;;;;0.40;0.20;;;17.80;99.90;;;;;;5043670;28;20435;-71
2021/09/26 08:27:19;;;;;;;0.40;0.30;;;17.70;99.90;;;;;;5039990;28;20393;-72
2021/09/26 08:29:45;;;;;;;0.40;0.20;;;17.90;99.90;;;;;;5049147;28;20392;-71
2021/09/26 08:32:11;;;;;;;0.60;0.40;;;18.00;99.90;;;;;;5052036;28;20431;-71
2021/09/26 08:34:37;;;;;;;0.40;0.30;;;18.00;99.90;;;;;;5048461;28;20480;-71
2021/09/26 08:37:03;;;;;;;0.70;0.60;;;18.10;99.90;;;;;;5051500;28;20439;-71
2021/09/26 08:39:29;;;;;;;0.40;0.30;;;18.10;99.90;;;;;;5017335;28;20443;-72
2021/09/26 08:41:56;;;;;;;0.40;0.30;;;18.10;99.90;;;;;;5051065;28;20381;-73
2021/09/26 08:44:26;;;;;;;0.40;0.20;;;18.20;99.90;;;;;;5051899;28;20404;-72
2021/09/26 08:46:55;;;;;;;0.40;0.20;;;18.20;99.90;;;;;;5033658;28;20870;-71
2021/09/26 08:49:22;;;;;;;0.40;0.30;;;18.30;99.90;;;;;;5034453;28;20389;-71
2021/09/26 08:51:50;;;;;;;0.40;0.30;;;18.20;99.90;;;;;;5040736;28;20575;-71
2021/09/26 08:54:17;;;;;;;0.40;0.28;;;18.30;99.90;;;;;;5030764;28;20407;-72
2021/09/26 08:56:43;;;;;;;0.40;0.20;;;18.30;99.90;;;;;;5031234;28;20445;-71
2021/09/26 08:59:10;;;;;;;0.40;0.30;;;18.30;99.90;;;;;;5041534;28;20381;-71
2021/09/26 09:01:37;;;;;;;0.40;0.20;;;18.40;99.90;;;;;;5039261;28;20908;-72
2021/09/26 09:04:04;;;;;;;0.40;0.30;;;18.40;99.90;;;;;;5044795;28;20384;-71
2021/09/26 09:06:47;;;;;;;0.40;0.20;;;18.50;99.90;;;;;;5024629;28;20390;-71
2021/09/26 09:09:15;;;;;;;0.40;0.20;;;18.50;99.90;;;;;;5041429;28;20419;-72
2021/09/26 09:11:58;;;;;;;0.40;0.30;;;18.50;99.90;;;;;;5039827;28;20476;-71
2021/09/26 09:14:25;;;;;;;0.40;0.20;;;18.60;99.90;;;;;;5040578;28;20407;-72
2021/09/26 09:16:55;;;;;;;0.40;0.20;;;18.80;99.90;;;;;;5038920;28;20417;-72
2021/09/26 09:19:23;;;;;;;0.40;0.30;;;18.90;99.90;;;;;;5044650;28;20389;-72
2021/09/26 09:22:06;;;;;;;0.40;0.30;;;19.00;99.90;;;;;;5025851;28;20397;-72
2021/09/26 09:24:41;;;;;;;0.40;0.30;;;18.80;99.90;;;;;;5051185;28;20730;-72
2021/09/26 09:27:08;;;;;;;0.40;0.20;;;18.90;99.90;;;;;;5038667;28;20784;-72
2021/09/26 09:29:37;;;;;;;0.40;0.20;;;18.90;99.90;;;;;;5041071;28;20383;-72
2021/09/26 09:32:15;;;;;;;0.40;0.30;;;19.00;99.90;;;;;;5041040;28;20390;-72
2021/09/26 09:34:41;;;;;;;0.40;0.27;;;19.10;99.90;;;;;;5042064;28;20945;-72
2021/09/26 09:37:15;;;;;;;0.40;0.30;;;19.10;99.90;;;;;;5039819;28;20470;-72
2021/09/26 09:39:43;;;;;;;0.40;0.20;;;19.10;99.90;;;;;;5039819;28;20475;-72
2021/09/26 09:42:20;;;;;;;0.40;0.30;;;19.10;99.90;;;;;;5040704;28;20393;-72
2021/09/26 09:44:46;;;;;;;0.40;0.30;;;19.20;99.90;;;;;;5021842;28;20405;-72
2021/09/26 09:47:12;;;;;;;0.40;0.20;;;19.20;99.90;;;;;;5040935;28;20417;-72
2021/09/26 09:49:53;;;;;;;0.40;0.30;;;19.40;99.90;;;;;;5042366;28;20401;-72
2021/09/26 09:52:40;;;;;;;0.40;0.30;;;19.40;99.90;;;;;;5044169;28;20371;-72
2021/09/26 09:55:06;;;;;;;0.40;0.20;;;19.60;99.90;;;;;;5040408;28;20417;-73
2021/09/26 09:57:31;;;;;;;0.40;0.20;;;19.70;99.90;;;;;;5041165;28;20885;-73
2021/09/26 09:59:57;;;;;;;0.40;0.20;;;19.70;99.90;;;;;;5038336;28;20732;-72
2021/09/26 10:02:36;;;;;;;0.40;0.30;;;19.90;99.90;;;;;;5037089;28;20443;-72
2021/09/26 10:05:03;;;;;;;0.40;0.20;;;20.20;99.90;;;;;;5041731;28;20886;-72
2021/09/26 10:07:30;;;;;;;0.40;0.30;;;20.30;99.90;;;;;;5041475;28;20394;-73
2021/09/26 10:09:57;;;;;;;0.60;0.60;;;20.40;99.90;;;;;;5029401;28;20395;-73
2021/09/26 10:12:30;;;;;;;0.40;0.20;;;20.50;99.90;;;;;;5019380;28;20432;-73
2021/09/26 10:15:00;;;;;;;0.40;0.30;;;20.60;99.90;;;;;;5017515;28;20421;-72
2021/09/26 10:17:27;;;;;;;0.40;0.30;;;20.80;99.90;;;;;;5016136;28;20401;-72
2021/09/26 10:19:53;;;;;;;0.40;0.30;;;20.90;99.90;;;;;;5035312;28;21263;-72
2021/09/26 10:22:20;;;;;;;0.40;0.30;;;21.10;99.90;;;;;;5032810;28;20385;-72
2021/09/26 10:24:55;;;;;;;0.40;0.30;;;20.90;99.90;;;;;;5035432;28;20385;-71
2021/09/26 10:27:22;;;;;;;0.40;0.20;;;20.90;99.90;;;;;;5030734;28;20417;-72
2021/09/26 10:30:04;;;;;;;0.40;0.30;;;21.10;99.90;;;;;;5035470;28;20411;-72
2021/09/26 10:32:30;;;;;;;0.40;0.30;;;21.10;99.90;;;;;;5035382;28;20409;-72
2021/09/26 10:34:56;;;;;;;0.40;0.20;;;21.10;99.90;;;;;;5035356;28;20413;-72
2021/09/26 10:37:23;;;;;;;0.40;0.30;;;21.20;99.90;;;;;;5035094;28;20490;-72
2021/09/26 10:39:50;;;;;;;0.40;0.20;;;21.10;99.90;;;;;;5035652;28;20405;-72
2021/09/26 10:42:18;;;;;;;0.40;0.20;;;21.40;99.90;;;;;;5032852;28;20996;-72
2021/09/26 10:44:58;;;;;;;0.40;0.30;;;21.40;99.90;;;;;;5035420;28;20455;-72
2021/09/26 10:47:38;;;;;;;0.40;0.20;;;21.50;99.90;;;;;;5035424;28;20404;-71
2021/09/26 10:50:14;;;;;;;0.40;0.32;;;21.40;99.90;;;;;;5035293;28;20386;-72
2021/09/26 10:52:42;;;;;;;0.40;0.20;;;21.30;99.90;;;;;;5037020;28;20396;-71
2021/09/26 10:55:24;;;;;;;0.40;0.30;;;21.30;99.90;;;;;;5037173;28;20413;-72
2021/09/26 10:58:09;;;;;;;0.40;0.28;;;21.10;99.90;;;;;;5037089;28;20402;-71
2021/09/26 11:00:48;;;;;;;0.40;0.30;;;21.10;99.90;;;;;;5034690;28;20389;-72
2021/09/26 11:03:17;;;;;;;0.40;0.20;;;21.10;99.90;;;;;;5035306;28;20399;-72
2021/09/26 11:05:44;;;;;;;0.40;0.20;;;21.00;99.90;;;;;;5018906;28;20404;-72
2021/09/26 11:08:16;;;;;;;0.40;0.20;;;21.10;99.90;;;;;;5036458;28;20475;-71
2021/09/26 11:10:48;;;;;;;0.40;0.20;;;21.10;99.90;;;;;;5034754;28;20416;-71
2021/09/26 11:13:20;;;;;;;0.40;0.30;;;21.20;99.90;;;;;;5035876;28;20401;-73
2021/09/26 11:16:13;;;;;;;0.40;0.20;;;21.20;99.90;;;;;;5036080;28;20965;-72
2021/09/26 11:19:03;;;;;;;0.40;0.30;;;21.20;99.90;;;;;;5034560;28;20486;-73
2021/09/26 11:21:41;;;;;;;0.40;0.20;;;21.00;99.90;;;;;;5032322;28;20402;-74
2021/09/26 11:24:35;;;;;;;0.40;0.30;;;20.90;99.90;;;;;;5033464;28;20428;-74
2021/09/26 11:27:07;;;;;;;0.40;0.30;;;20.90;99.90;;;;;;5031970;28;20417;-74
2021/09/26 11:29:42;;;;;;;0.40;0.20;;;20.80;99.90;;;;;;5017424;28;20403;-73
2021/09/26 11:32:23;;;;;;;0.40;0.30;;;20.80;99.90;;;;;;5031398;28;20436;-72
2021/09/26 11:34:52;;;;;;;0.40;0.30;;;20.70;99.90;;;;;;5035431;28;20424;-72
2021/09/26 11:37:38;;;;;;;0.40;0.20;;;20.70;99.90;;;;;;5034623;28;20381;-72
2021/09/26 11:40:16;;;;;;;0.40;0.20;;;20.70;99.90;;;;;;5033054;28;20385;-72
2021/09/26 11:42:44;;;;;;;0.40;0.20;;;20.80;99.90;;;;;;5034296;28;20432;-71
2021/09/26 11:45:15;;;;;;;0.40;0.20;;;21.00;99.90;;;;;;5033635;28;20498;-71
2021/09/26 11:47:41;;;;;;;0.40;0.20;;;21.00;99.90;;;;;;5034840;28;20397;-72
2021/09/26 11:50:09;;;;;;;0.40;0.30;;;21.20;99.90;;;;;;5032708;28;20398;-72
2021/09/26 11:52:42;;;;;;;0.40;0.20;;;21.20;99.90;;;;;;5034494;28;20393;-72
2021/09/26 11:55:09;;;;;;;0.40;0.30;;;21.20;99.90;;;;;;5034505;28;20456;-71
2021/09/26 11:57:35;;;;;;;0.40;0.20;;;21.10;99.90;;;;;;5034441;28;20398;-72
2021/09/26 12:00:01;;;;;;;0.40;0.20;;;21.20;99.90;;;;;;5033914;28;20389;-72
2021/09/26 12:02:33;;;;;;;0.40;0.20;;;21.40;99.90;;;;;;5032209;28;20798;-72
2021/09/26 12:04:59;;;;;;;0.40;0.20;;;21.60;99.90;;;;;;5034057;28;21016;-72
2021/09/26 12:07:31;;;;;;;0.40;0.20;;;21.60;99.90;;;;;;5033302;28;20398;-73
2021/09/26 12:09:58;;;;;;;0.40;0.30;;;21.40;99.90;;;;;;5033924;28;20532;-73
2021/09/26 12:12:26;;;;;;;0.40;0.20;;;21.30;99.90;;;;;;5031341;28;20413;-73
2021/09/26 12:15:07;;;;;;;0.40;0.30;;;21.40;99.90;;;;;;5034567;28;20492;-72
2021/09/26 12:17:36;;;;;;;0.40;0.30;;;21.40;99.90;;;;;;5034648;28;20493;-72
2021/09/26 12:20:14;;;;;;;0.40;0.30;;;21.30;99.90;;;;;;5034011;28;20436;-72
2021/09/26 12:22:41;;;;;;;0.40;0.20;;;21.30;99.90;;;;;;5033871;28;20787;-72
2021/09/26 12:25:15;;;;;;;0.40;0.20;;;21.30;99.90;;;;;;5034398;28;20397;-74
2021/09/26 12:27:49;;;;;;;0.40;0.20;;;21.40;99.90;;;;;;5033952;28;20385;-73
2021/09/26 12:30:24;;;;;;;0.40;0.20;;;21.60;99.90;;;;;;5032288;28;20425;-73
2021/09/26 12:33:18;;;;;;;0.40;0.20;;;21.80;99.90;;;;;;5035900;28;20393;-73
2021/09/26 12:36:04;;;;;;;0.40;0.30;;;22.10;99.90;;;;;;5037828;28;20409;-74
2021/09/26 12:38:53;;;;;;;0.40;0.20;;;22.10;99.90;;;;;;5038287;28;20952;-74
2021/09/26 12:41:18;;;;;;;0.40;0.20;;;21.80;99.90;;;;;;5035186;28;20394;-74
2021/09/26 12:44:11;;;;;;;0.40;0.20;;;21.40;99.90;;;;;;5037360;28;20862;-72
2021/09/26 12:46:40;;;;;;;0.40;0.20;;;21.10;99.90;;;;;;5019097;28;20429;-73
2021/09/26 12:49:12;;;;;;;0.40;0.30;;;20.90;99.90;;;;;;5018948;28;20397;-72
2021/09/26 12:51:43;;;;;;;0.40;0.30;;;20.80;99.90;;;;;;5016486;28;20401;-73
2021/09/26 12:54:11;;;;;;;0.40;0.20;;;20.60;99.90;;;;;;5018057;28;20397;-73
2021/09/26 12:56:39;;;;;;;0.70;0.60;;;20.70;99.90;;;;;;5037302;28;20510;-72